sensor_id;sensor_type;location;lat;lon;timestamp;P1;durP1;ratioP1;P2;durP2;ratioP2
43152;SDS011;28756;49.064;9.290;2024-02-16T00:00:45;1.10;;;1.00;;
43152;SDS011;28756;49.064;9.290;2024-02-16T00:03:12;1.55;;;1.00;;
43152;SDS011;28756;49.064;9.290;2024-02-16T00:05:38;2.72;;;1.05;;
43152;SDS011;28756;49.064;9.290;2024-02-16T00:08:03;3.45;;;1.13;;
43152;SDS011;28756;49.064;9.290;2024-02-16T00:10:30;0.93;;;0.82;;
43152;SDS011;28756;49.064;9.290;2024-02-16T00:12:56;2.33;;;1.40;;
43152;SDS011;28756;49.064;9.290;2024-02-16T00:15:21;2.15;;;1.33;;
43152;SDS011;28756;49.064;9.290;2024-02-16T00:17:48;2.35;;;1.33;;
43152;SDS011;28756;49.064;9.290;2024-02-16T00:20:14;1.67;;;1.33;;
43152;SDS011;28756;49.064;9.290;2024-02-16T00:22:40;1.58;;;1.15;;
43152;SDS011;28756;49.064;9.290;2024-02-16T00:25:06;2.15;;;1.30;;
43152;SDS011;28756;49.064;9.290;2024-02-16T00:27:32;2.05;;;1.30;;
43152;SDS011;28756;49.064;9.290;2024-02-16T00:29:58;2.42;;;1.15;;
43152;SDS011;28756;49.064;9.290;2024-02-16T00:32:27;1.73;;;1.35;;
43152;SDS011;28756;49.064;9.290;2024-02-16T00:34:55;1.77;;;1.00;;
43152;SDS011;28756;49.064;9.290;2024-02-16T00:37:23;1.95;;;1.13;;
43152;SDS011;28756;49.064;9.290;2024-02-16T00:39:49;1.77;;;1.20;;
43152;SDS011;28756;49.064;9.290;2024-02-16T00:42:17;1.23;;;1.10;;
43152;SDS011;28756;49.064;9.290;2024-02-16T00:44:43;1.60;;;1.10;;
43152;SDS011;28756;49.064;9.290;2024-02-16T00:47:08;1.80;;;1.10;;
43152;SDS011;28756;49.064;9.290;2024-02-16T00:49:37;1.92;;;1.40;;
43152;SDS011;28756;49.064;9.290;2024-02-16T00:52:03;2.58;;;1.45;;
43152;SDS011;28756;49.064;9.290;2024-02-16T00:54:30;1.52;;;1.05;;
43152;SDS011;28756;49.064;9.290;2024-02-16T00:56:58;2.05;;;1.10;;
43152;SDS011;28756;49.064;9.290;2024-02-16T00:59:27;1.20;;;1.10;;
43152;SDS011;28756;49.064;9.290;2024-02-16T01:01:56;1.85;;;1.10;;
43152;SDS011;28756;49.064;9.290;2024-02-16T01:04:22;1.40;;;1.13;;
43152;SDS011;28756;49.064;9.290;2024-02-16T01:06:48;1.05;;;0.88;;
43152;SDS011;28756;49.064;9.290;2024-02-16T01:09:15;1.60;;;1.10;;
43152;SDS011;28756;49.064;9.290;2024-02-16T01:11:41;1.88;;;1.13;;
43152;SDS011;28756;49.064;9.290;2024-02-16T01:14:07;2.75;;;1.05;;
43152;SDS011;28756;49.064;9.290;2024-02-16T01:16:33;1.55;;;1.08;;
43152;SDS011;28756;49.064;9.290;2024-02-16T01:19:00;1.25;;;1.00;;
43152;SDS011;28756;49.064;9.290;2024-02-16T01:21:26;1.67;;;1.20;;
43152;SDS011;28756;49.064;9.290;2024-02-16T01:23:52;1.90;;;1.10;;
43152;SDS011;28756;49.064;9.290;2024-02-16T01:26:18;2.17;;;1.10;;
43152;SDS011;28756;49.064;9.290;2024-02-16T01:28:44;3.65;;;1.23;;
43152;SDS011;28756;49.064;9.290;2024-02-16T01:31:09;1.35;;;1.00;;
43152;SDS011;28756;49.064;9.290;2024-02-16T01:33:36;1.40;;;1.23;;
43152;SDS011;28756;49.064;9.290;2024-02-16T01:36:02;1.92;;;1.20;;
43152;SDS011;28756;49.064;9.290;2024-02-16T01:38:28;1.80;;;1.10;;
43152;SDS011;28756;49.064;9.290;2024-02-16T01:40:54;1.80;;;1.30;;
43152;SDS011;28756;49.064;9.290;2024-02-16T01:43:20;1.58;;;1.10;;
43152;SDS011;28756;49.064;9.290;2024-02-16T01:45:47;1.48;;;1.00;;
43152;SDS011;28756;49.064;9.290;2024-02-16T01:48:16;1.20;;;1.08;;
43152;SDS011;28756;49.064;9.290;2024-02-16T01:50:45;2.58;;;1.30;;
43152;SDS011;28756;49.064;9.290;2024-02-16T01:53:12;2.55;;;1.40;;
43152;SDS011;28756;49.064;9.290;2024-02-16T01:55:43;2.63;;;1.10;;
43152;SDS011;28756;49.064;9.290;2024-02-16T01:58:13;1.45;;;1.20;;
43152;SDS011;28756;49.064;9.290;2024-02-16T02:00:46;1.90;;;1.30;;
43152;SDS011;28756;49.064;9.290;2024-02-16T02:03:12;4.03;;;2.30;;
43152;SDS011;28756;49.064;9.290;2024-02-16T02:05:54;2.90;;;1.70;;
43152;SDS011;28756;49.064;9.290;2024-02-16T02:08:21;2.78;;;1.50;;
43152;SDS011;28756;49.064;9.290;2024-02-16T02:10:53;2.10;;;1.50;;
43152;SDS011;28756;49.064;9.290;2024-02-16T02:13:22;3.08;;;1.60;;
43152;SDS011;28756;49.064;9.290;2024-02-16T02:16:31;2.88;;;1.17;;
43152;SDS011;28756;49.064;9.290;2024-02-16T02:18:58;3.00;;;1.48;;
43152;SDS011;28756;49.064;9.290;2024-02-16T02:21:23;3.67;;;1.48;;
43152;SDS011;28756;49.064;9.290;2024-02-16T02:23:52;2.00;;;1.75;;
43152;SDS011;28756;49.064;9.290;2024-02-16T02:26:38;2.53;;;1.90;;
43152;SDS011;28756;49.064;9.290;2024-02-16T02:29:04;2.10;;;1.70;;
43152;SDS011;28756;49.064;9.290;2024-02-16T02:31:41;2.28;;;1.40;;
43152;SDS011;28756;49.064;9.290;2024-02-16T02:34:10;1.80;;;1.23;;
43152;SDS011;28756;49.064;9.290;2024-02-16T02:36:48;2.65;;;1.30;;
43152;SDS011;28756;49.064;9.290;2024-02-16T02:39:27;2.70;;;1.50;;
43152;SDS011;28756;49.064;9.290;2024-02-16T02:42:12;2.13;;;1.25;;
43152;SDS011;28756;49.064;9.290;2024-02-16T02:44:43;1.60;;;1.20;;
43152;SDS011;28756;49.064;9.290;2024-02-16T02:47:22;2.25;;;1.40;;
43152;SDS011;28756;49.064;9.290;2024-02-16T02:49:50;2.33;;;1.50;;
43152;SDS011;28756;49.064;9.290;2024-02-16T02:52:26;3.25;;;1.70;;
43152;SDS011;28756;49.064;9.290;2024-02-16T02:54:52;2.40;;;1.70;;
43152;SDS011;28756;49.064;9.290;2024-02-16T02:57:18;3.92;;;1.73;;
43152;SDS011;28756;49.064;9.290;2024-02-16T03:02:53;1.98;;;1.40;;
43152;SDS011;28756;49.064;9.290;2024-02-16T03:05:25;1.90;;;1.40;;
43152;SDS011;28756;49.064;9.290;2024-02-16T03:08:09;2.15;;;1.52;;
43152;SDS011;28756;49.064;9.290;2024-02-16T03:10:53;2.83;;;1.63;;
43152;SDS011;28756;49.064;9.290;2024-02-16T03:13:21;3.35;;;1.70;;
43152;SDS011;28756;49.064;9.290;2024-02-16T03:15:53;3.55;;;1.50;;
43152;SDS011;28756;49.064;9.290;2024-02-16T03:18:33;1.40;;;1.15;;
43152;SDS011;28756;49.064;9.290;2024-02-16T03:21:01;2.35;;;1.33;;
43152;SDS011;28756;49.064;9.290;2024-02-16T03:23:38;2.28;;;1.45;;
43152;SDS011;28756;49.064;9.290;2024-02-16T03:26:04;2.33;;;1.27;;
43152;SDS011;28756;49.064;9.290;2024-02-16T03:28:48;3.38;;;1.30;;
43152;SDS011;28756;49.064;9.290;2024-02-16T03:31:24;2.53;;;1.35;;
43152;SDS011;28756;49.064;9.290;2024-02-16T03:33:50;2.40;;;1.25;;
43152;SDS011;28756;49.064;9.290;2024-02-16T03:36:17;1.20;;;0.90;;
43152;SDS011;28756;49.064;9.290;2024-02-16T03:38:56;1.48;;;1.15;;
43152;SDS011;28756;49.064;9.290;2024-02-16T03:41:25;2.05;;;1.35;;
43152;SDS011;28756;49.064;9.290;2024-02-16T03:44:00;2.50;;;1.33;;
43152;SDS011;28756;49.064;9.290;2024-02-16T03:46:33;1.75;;;1.20;;
43152;SDS011;28756;49.064;9.290;2024-02-16T03:49:09;3.70;;;1.35;;
43152;SDS011;28756;49.064;9.290;2024-02-16T03:51:37;2.78;;;1.30;;
43152;SDS011;28756;49.064;9.290;2024-02-16T03:54:14;2.70;;;1.30;;
43152;SDS011;28756;49.064;9.290;2024-02-16T03:56:46;1.35;;;1.10;;
43152;SDS011;28756;49.064;9.290;2024-02-16T03:59:13;2.88;;;1.20;;
43152;SDS011;28756;49.064;9.290;2024-02-16T04:01:47;2.13;;;1.20;;
43152;SDS011;28756;49.064;9.290;2024-02-16T04:04:17;2.13;;;1.00;;
43152;SDS011;28756;49.064;9.290;2024-02-16T04:06:52;3.47;;;1.05;;
43152;SDS011;28756;49.064;9.290;2024-02-16T04:09:17;1.48;;;1.08;;
43152;SDS011;28756;49.064;9.290;2024-02-16T04:12:00;2.05;;;1.10;;
43152;SDS011;28756;49.064;9.290;2024-02-16T04:14:31;1.30;;;1.05;;
43152;SDS011;28756;49.064;9.290;2024-02-16T04:17:01;1.98;;;1.10;;
43152;SDS011;28756;49.064;9.290;2024-02-16T04:19:30;1.17;;;0.90;;
43152;SDS011;28756;49.064;9.290;2024-02-16T04:21:59;1.52;;;1.10;;
43152;SDS011;28756;49.064;9.290;2024-02-16T04:27:14;1.77;;;1.00;;
43152;SDS011;28756;49.064;9.290;2024-02-16T04:29:40;2.25;;;1.30;;
43152;SDS011;28756;49.064;9.290;2024-02-16T04:32:09;2.28;;;0.98;;
43152;SDS011;28756;49.064;9.290;2024-02-16T04:34:35;1.92;;;1.00;;
43152;SDS011;28756;49.064;9.290;2024-02-16T04:37:00;1.88;;;1.00;;
43152;SDS011;28756;49.064;9.290;2024-02-16T04:39:29;1.33;;;0.95;;
43152;SDS011;28756;49.064;9.290;2024-02-16T04:41:57;1.38;;;0.88;;
43152;SDS011;28756;49.064;9.290;2024-02-16T04:44:30;2.47;;;1.20;;
43152;SDS011;28756;49.064;9.290;2024-02-16T04:47:03;1.73;;;0.73;;
43152;SDS011;28756;49.064;9.290;2024-02-16T04:49:29;1.73;;;0.95;;
43152;SDS011;28756;49.064;9.290;2024-02-16T04:51:55;1.50;;;1.13;;
43152;SDS011;28756;49.064;9.290;2024-02-16T04:54:21;0.90;;;0.70;;
43152;SDS011;28756;49.064;9.290;2024-02-16T04:56:50;2.20;;;1.10;;
43152;SDS011;28756;49.064;9.290;2024-02-16T04:59:24;2.80;;;1.20;;
43152;SDS011;28756;49.064;9.290;2024-02-16T05:01:54;3.45;;;1.13;;
43152;SDS011;28756;49.064;9.290;2024-02-16T05:04:27;1.92;;;1.00;;
43152;SDS011;28756;49.064;9.290;2024-02-16T05:07:04;3.65;;;1.00;;
43152;SDS011;28756;49.064;9.290;2024-02-16T05:09:48;1.58;;;1.00;;
43152;SDS011;28756;49.064;9.290;2024-02-16T05:12:17;1.45;;;0.90;;
43152;SDS011;28756;49.064;9.290;2024-02-16T05:14:49;1.00;;;0.90;;
43152;SDS011;28756;49.064;9.290;2024-02-16T05:17:15;1.35;;;1.00;;
43152;SDS011;28756;49.064;9.290;2024-02-16T05:19:41;1.15;;;1.05;;
43152;SDS011;28756;49.064;9.290;2024-02-16T05:22:07;1.20;;;1.10;;
43152;SDS011;28756;49.064;9.290;2024-02-16T05:24:34;1.30;;;1.00;;
43152;SDS011;28756;49.064;9.290;2024-02-16T05:27:03;1.50;;;1.13;;
43152;SDS011;28756;49.064;9.290;2024-02-16T05:29:29;1.10;;;0.95;;
43152;SDS011;28756;49.064;9.290;2024-02-16T05:31:58;1.40;;;0.80;;
43152;SDS011;28756;49.064;9.290;2024-02-16T05:34:26;1.30;;;1.02;;
43152;SDS011;28756;49.064;9.290;2024-02-16T05:36:57;3.92;;;2.78;;
43152;SDS011;28756;49.064;9.290;2024-02-16T05:39:31;4.65;;;2.83;;
43152;SDS011;28756;49.064;9.290;2024-02-16T05:42:00;2.67;;;2.22;;
43152;SDS011;28756;49.064;9.290;2024-02-16T05:44:26;3.60;;;2.17;;
43152;SDS011;28756;49.064;9.290;2024-02-16T05:46:57;3.17;;;1.90;;
43152;SDS011;28756;49.064;9.290;2024-02-16T05:49:23;2.38;;;1.38;;
43152;SDS011;28756;49.064;9.290;2024-02-16T05:51:49;1.65;;;1.30;;
43152;SDS011;28756;49.064;9.290;2024-02-16T05:54:42;2.42;;;1.30;;
43152;SDS011;28756;49.064;9.290;2024-02-16T05:57:12;4.80;;;1.25;;
43152;SDS011;28756;49.064;9.290;2024-02-16T05:59:41;3.22;;;1.10;;
43152;SDS011;28756;49.064;9.290;2024-02-16T06:02:08;1.67;;;1.30;;
43152;SDS011;28756;49.064;9.290;2024-02-16T06:04:35;1.30;;;1.00;;
43152;SDS011;28756;49.064;9.290;2024-02-16T06:07:02;1.73;;;1.10;;
43152;SDS011;28756;49.064;9.290;2024-02-16T06:09:28;1.58;;;1.10;;
43152;SDS011;28756;49.064;9.290;2024-02-16T06:12:00;2.15;;;1.35;;
43152;SDS011;28756;49.064;9.290;2024-02-16T06:14:28;1.23;;;1.13;;
43152;SDS011;28756;49.064;9.290;2024-02-16T06:16:55;1.88;;;1.40;;
43152;SDS011;28756;49.064;9.290;2024-02-16T06:19:21;1.88;;;1.38;;
43152;SDS011;28756;49.064;9.290;2024-02-16T06:21:50;1.83;;;1.40;;
43152;SDS011;28756;49.064;9.290;2024-02-16T06:24:15;2.85;;;1.45;;
43152;SDS011;28756;49.064;9.290;2024-02-16T06:26:42;1.80;;;1.40;;
43152;SDS011;28756;49.064;9.290;2024-02-16T06:29:08;2.63;;;1.65;;
43152;SDS011;28756;49.064;9.290;2024-02-16T06:31:34;3.13;;;1.38;;
43152;SDS011;28756;49.064;9.290;2024-02-16T06:33:59;2.67;;;1.50;;
43152;SDS011;28756;49.064;9.290;2024-02-16T06:36:25;2.33;;;1.45;;
43152;SDS011;28756;49.064;9.290;2024-02-16T06:38:56;1.52;;;1.40;;
43152;SDS011;28756;49.064;9.290;2024-02-16T06:41:22;2.10;;;1.60;;
43152;SDS011;28756;49.064;9.290;2024-02-16T06:43:48;3.67;;;1.40;;
43152;SDS011;28756;49.064;9.290;2024-02-16T06:46:14;1.85;;;1.25;;
43152;SDS011;28756;49.064;9.290;2024-02-16T06:48:40;2.03;;;1.40;;
43152;SDS011;28756;49.064;9.290;2024-02-16T06:51:08;5.25;;;2.13;;
43152;SDS011;28756;49.064;9.290;2024-02-16T06:53:36;4.82;;;2.20;;
43152;SDS011;28756;49.064;9.290;2024-02-16T06:56:05;5.78;;;2.20;;
43152;SDS011;28756;49.064;9.290;2024-02-16T06:58:31;4.70;;;2.20;;
43152;SDS011;28756;49.064;9.290;2024-02-16T07:00:57;3.13;;;1.80;;
43152;SDS011;28756;49.064;9.290;2024-02-16T07:03:33;3.25;;;1.95;;
43152;SDS011;28756;49.064;9.290;2024-02-16T07:06:01;5.10;;;1.90;;
43152;SDS011;28756;49.064;9.290;2024-02-16T07:08:34;5.57;;;1.67;;
43152;SDS011;28756;49.064;9.290;2024-02-16T07:11:12;3.85;;;1.73;;
43152;SDS011;28756;49.064;9.290;2024-02-16T07:13:40;2.58;;;1.67;;
43152;SDS011;28756;49.064;9.290;2024-02-16T07:16:15;2.83;;;1.52;;
43152;SDS011;28756;49.064;9.290;2024-02-16T07:19:04;4.65;;;2.10;;
43152;SDS011;28756;49.064;9.290;2024-02-16T07:21:33;4.95;;;2.92;;
43152;SDS011;28756;49.064;9.290;2024-02-16T07:24:14;4.65;;;2.45;;
43152;SDS011;28756;49.064;9.290;2024-02-16T07:26:56;4.43;;;2.30;;
43152;SDS011;28756;49.064;9.290;2024-02-16T07:29:54;2.63;;;1.80;;
43152;SDS011;28756;49.064;9.290;2024-02-16T07:32:54;4.82;;;2.03;;
43152;SDS011;28756;49.064;9.290;2024-02-16T07:35:23;3.58;;;1.85;;
43152;SDS011;28756;49.064;9.290;2024-02-16T07:38:06;4.47;;;2.45;;
43152;SDS011;28756;49.064;9.290;2024-02-16T07:41:03;4.35;;;1.98;;
43152;SDS011;28756;49.064;9.290;2024-02-16T07:43:30;6.82;;;2.20;;
43152;SDS011;28756;49.064;9.290;2024-02-16T07:46:16;3.78;;;2.00;;
43152;SDS011;28756;49.064;9.290;2024-02-16T07:49:03;3.38;;;2.00;;
43152;SDS011;28756;49.064;9.290;2024-02-16T07:51:39;2.83;;;1.90;;
43152;SDS011;28756;49.064;9.290;2024-02-16T07:54:18;4.97;;;2.20;;
43152;SDS011;28756;49.064;9.290;2024-02-16T07:57:16;4.07;;;2.15;;
43152;SDS011;28756;49.064;9.290;2024-02-16T08:00:06;3.20;;;2.00;;
43152;SDS011;28756;49.064;9.290;2024-02-16T08:03:05;5.18;;;2.55;;
43152;SDS011;28756;49.064;9.290;2024-02-16T08:06:05;3.03;;;1.92;;
43152;SDS011;28756;49.064;9.290;2024-02-16T08:08:50;4.80;;;2.08;;
43152;SDS011;28756;49.064;9.290;2024-02-16T08:17:15;2.90;;;2.30;;
43152;SDS011;28756;49.064;9.290;2024-02-16T08:20:10;4.45;;;2.78;;
43152;SDS011;28756;49.064;9.290;2024-02-16T08:22:42;4.93;;;3.00;;
43152;SDS011;28756;49.064;9.290;2024-02-16T08:25:18;9.73;;;3.50;;
43152;SDS011;28756;49.064;9.290;2024-02-16T08:27:59;6.65;;;2.80;;
43152;SDS011;28756;49.064;9.290;2024-02-16T08:30:35;5.00;;;2.30;;
43152;SDS011;28756;49.064;9.290;2024-02-16T08:33:21;5.20;;;2.90;;
43152;SDS011;28756;49.064;9.290;2024-02-16T08:36:08;5.78;;;2.58;;
43152;SDS011;28756;49.064;9.290;2024-02-16T08:38:34;7.60;;;2.42;;
43152;SDS011;28756;49.064;9.290;2024-02-16T08:41:18;3.58;;;2.30;;
43152;SDS011;28756;49.064;9.290;2024-02-16T08:44:33;4.55;;;2.20;;
43152;SDS011;28756;49.064;9.290;2024-02-16T08:47:02;2.72;;;2.00;;
43152;SDS011;28756;49.064;9.290;2024-02-16T08:49:43;5.68;;;2.28;;
43152;SDS011;28756;49.064;9.290;2024-02-16T08:52:20;3.95;;;2.53;;
43152;SDS011;28756;49.064;9.290;2024-02-16T08:54:58;3.35;;;2.30;;
43152;SDS011;28756;49.064;9.290;2024-02-16T09:00:37;3.47;;;2.40;;
43152;SDS011;28756;49.064;9.290;2024-02-16T09:03:20;4.68;;;2.35;;
43152;SDS011;28756;49.064;9.290;2024-02-16T09:06:04;3.00;;;2.00;;
43152;SDS011;28756;49.064;9.290;2024-02-16T09:08:42;2.80;;;1.90;;
43152;SDS011;28756;49.064;9.290;2024-02-16T09:11:24;2.85;;;1.90;;
43152;SDS011;28756;49.064;9.290;2024-02-16T09:14:14;4.75;;;2.22;;
43152;SDS011;28756;49.064;9.290;2024-02-16T09:17:13;3.72;;;2.65;;
43152;SDS011;28756;49.064;9.290;2024-02-16T09:20:05;3.38;;;2.28;;
43152;SDS011;28756;49.064;9.290;2024-02-16T09:23:05;2.88;;;1.90;;
43152;SDS011;28756;49.064;9.290;2024-02-16T09:26:00;2.28;;;1.70;;
43152;SDS011;28756;49.064;9.290;2024-02-16T09:28:48;3.40;;;2.10;;
43152;SDS011;28756;49.064;9.290;2024-02-16T09:31:49;4.32;;;2.15;;
43152;SDS011;28756;49.064;9.290;2024-02-16T09:37:18;4.95;;;2.28;;
43152;SDS011;28756;49.064;9.290;2024-02-16T09:40:05;3.50;;;2.55;;
43152;SDS011;28756;49.064;9.290;2024-02-16T09:42:50;5.57;;;2.20;;
43152;SDS011;28756;49.064;9.290;2024-02-16T09:45:30;4.25;;;2.33;;
43152;SDS011;28756;49.064;9.290;2024-02-16T09:48:16;3.33;;;1.90;;
43152;SDS011;28756;49.064;9.290;2024-02-16T09:51:06;3.33;;;2.08;;
43152;SDS011;28756;49.064;9.290;2024-02-16T09:53:45;3.42;;;2.00;;
43152;SDS011;28756;49.064;9.290;2024-02-16T09:56:49;2.58;;;1.80;;
43152;SDS011;28756;49.064;9.290;2024-02-16T09:59:30;2.30;;;1.70;;
43152;SDS011;28756;49.064;9.290;2024-02-16T10:02:42;2.83;;;1.70;;
43152;SDS011;28756;49.064;9.290;2024-02-16T10:05:44;2.40;;;1.80;;
43152;SDS011;28756;49.064;9.290;2024-02-16T10:08:13;2.00;;;1.55;;
43152;SDS011;28756;49.064;9.290;2024-02-16T10:10:50;2.53;;;1.83;;
43152;SDS011;28756;49.064;9.290;2024-02-16T10:13:43;5.70;;;1.80;;
43152;SDS011;28756;49.064;9.290;2024-02-16T10:16:38;1.88;;;1.48;;
43152;SDS011;28756;49.064;9.290;2024-02-16T10:19:17;4.00;;;1.80;;
43152;SDS011;28756;49.064;9.290;2024-02-16T10:24:41;4.20;;;2.10;;
43152;SDS011;28756;49.064;9.290;2024-02-16T10:27:18;2.92;;;1.98;;
43152;SDS011;28756;49.064;9.290;2024-02-16T10:30:00;4.03;;;1.80;;
43152;SDS011;28756;49.064;9.290;2024-02-16T10:32:49;2.63;;;1.63;;
43152;SDS011;28756;49.064;9.290;2024-02-16T10:35:18;3.03;;;1.75;;
43152;SDS011;28756;49.064;9.290;2024-02-16T10:38:06;2.42;;;1.55;;
43152;SDS011;28756;49.064;9.290;2024-02-16T10:40:59;3.22;;;1.65;;
43152;SDS011;28756;49.064;9.290;2024-02-16T10:46:36;2.67;;;1.58;;
43152;SDS011;28756;49.064;9.290;2024-02-16T10:49:34;2.70;;;1.75;;
43152;SDS011;28756;49.064;9.290;2024-02-16T10:52:04;2.42;;;1.42;;
43152;SDS011;28756;49.064;9.290;2024-02-16T10:54:50;2.92;;;1.70;;
43152;SDS011;28756;49.064;9.290;2024-02-16T10:57:42;2.75;;;1.50;;
43152;SDS011;28756;49.064;9.290;2024-02-16T11:00:20;1.90;;;1.50;;
43152;SDS011;28756;49.064;9.290;2024-02-16T11:02:51;2.63;;;1.50;;
43152;SDS011;28756;49.064;9.290;2024-02-16T11:08:12;2.53;;;1.83;;
43152;SDS011;28756;49.064;9.290;2024-02-16T11:10:41;2.85;;;1.67;;
43152;SDS011;28756;49.064;9.290;2024-02-16T11:13:22;3.03;;;1.80;;
43152;SDS011;28756;49.064;9.290;2024-02-16T11:15:59;2.75;;;1.63;;
43152;SDS011;28756;49.064;9.290;2024-02-16T11:18:37;2.88;;;1.65;;
43152;SDS011;28756;49.064;9.290;2024-02-16T11:21:05;1.90;;;1.30;;
43152;SDS011;28756;49.064;9.290;2024-02-16T11:23:34;1.60;;;1.20;;
43152;SDS011;28756;49.064;9.290;2024-02-16T11:26:01;1.83;;;1.30;;
43152;SDS011;28756;49.064;9.290;2024-02-16T11:28:33;1.90;;;1.42;;
43152;SDS011;28756;49.064;9.290;2024-02-16T11:31:01;3.13;;;1.40;;
43152;SDS011;28756;49.064;9.290;2024-02-16T11:33:27;2.53;;;1.60;;
43152;SDS011;28756;49.064;9.290;2024-02-16T11:35:57;4.57;;;1.73;;
43152;SDS011;28756;49.064;9.290;2024-02-16T11:38:30;3.20;;;1.67;;
43152;SDS011;28756;49.064;9.290;2024-02-16T11:41:01;3.40;;;1.50;;
43152;SDS011;28756;49.064;9.290;2024-02-16T11:43:29;1.70;;;1.33;;
43152;SDS011;28756;49.064;9.290;2024-02-16T11:45:57;2.50;;;1.33;;
43152;SDS011;28756;49.064;9.290;2024-02-16T11:48:23;1.67;;;1.30;;
43152;SDS011;28756;49.064;9.290;2024-02-16T11:51:00;1.52;;;1.00;;
43152;SDS011;28756;49.064;9.290;2024-02-16T11:53:28;2.97;;;1.30;;
43152;SDS011;28756;49.064;9.290;2024-02-16T11:55:57;1.65;;;1.25;;
43152;SDS011;28756;49.064;9.290;2024-02-16T11:58:23;1.88;;;1.30;;
43152;SDS011;28756;49.064;9.290;2024-02-16T12:00:50;2.10;;;1.45;;
43152;SDS011;28756;49.064;9.290;2024-02-16T12:03:26;4.43;;;1.30;;
43152;SDS011;28756;49.064;9.290;2024-02-16T12:08:23;2.95;;;1.20;;
43152;SDS011;28756;49.064;9.290;2024-02-16T12:10:57;3.55;;;1.45;;
43152;SDS011;28756;49.064;9.290;2024-02-16T12:13:23;3.78;;;1.30;;
43152;SDS011;28756;49.064;9.290;2024-02-16T12:15:50;4.28;;;1.30;;
43152;SDS011;28756;49.064;9.290;2024-02-16T12:23:45;3.05;;;1.60;;
43152;SDS011;28756;49.064;9.290;2024-02-16T12:26:11;2.65;;;1.40;;
43152;SDS011;28756;49.064;9.290;2024-02-16T12:28:37;2.55;;;1.50;;
43152;SDS011;28756;49.064;9.290;2024-02-16T12:31:03;2.08;;;1.30;;
43152;SDS011;28756;49.064;9.290;2024-02-16T12:33:29;4.30;;;1.83;;
43152;SDS011;28756;49.064;9.290;2024-02-16T12:35:55;3.15;;;1.70;;
43152;SDS011;28756;49.064;9.290;2024-02-16T12:38:21;4.65;;;2.20;;
43152;SDS011;28756;49.064;9.290;2024-02-16T12:40:46;3.03;;;1.55;;
43152;SDS011;28756;49.064;9.290;2024-02-16T12:43:13;4.30;;;1.77;;
43152;SDS011;28756;49.064;9.290;2024-02-16T12:45:39;3.63;;;1.70;;
43152;SDS011;28756;49.064;9.290;2024-02-16T12:48:06;5.63;;;1.80;;
43152;SDS011;28756;49.064;9.290;2024-02-16T12:50:32;3.40;;;1.70;;
43152;SDS011;28756;49.064;9.290;2024-02-16T12:52:58;3.40;;;1.33;;
43152;SDS011;28756;49.064;9.290;2024-02-16T12:55:24;2.72;;;1.42;;
43152;SDS011;28756;49.064;9.290;2024-02-16T12:57:50;3.05;;;1.38;;
43152;SDS011;28756;49.064;9.290;2024-02-16T13:00:17;3.00;;;1.52;;
43152;SDS011;28756;49.064;9.290;2024-02-16T13:02:43;4.80;;;1.50;;
43152;SDS011;28756;49.064;9.290;2024-02-16T13:05:09;2.30;;;1.23;;
43152;SDS011;28756;49.064;9.290;2024-02-16T13:07:36;3.53;;;1.55;;
43152;SDS011;28756;49.064;9.290;2024-02-16T13:10:05;3.33;;;1.30;;
43152;SDS011;28756;49.064;9.290;2024-02-16T13:12:34;3.35;;;1.30;;
43152;SDS011;28756;49.064;9.290;2024-02-16T13:15:02;3.92;;;1.50;;
43152;SDS011;28756;49.064;9.290;2024-02-16T13:17:30;4.25;;;1.60;;
43152;SDS011;28756;49.064;9.290;2024-02-16T13:19:55;3.95;;;1.40;;
43152;SDS011;28756;49.064;9.290;2024-02-16T13:22:31;4.70;;;1.63;;
43152;SDS011;28756;49.064;9.290;2024-02-16T13:24:57;4.88;;;1.60;;
43152;SDS011;28756;49.064;9.290;2024-02-16T13:27:22;2.75;;;1.35;;
43152;SDS011;28756;49.064;9.290;2024-02-16T13:29:48;6.10;;;1.33;;
43152;SDS011;28756;49.064;9.290;2024-02-16T13:32:14;3.50;;;1.48;;
43152;SDS011;28756;49.064;9.290;2024-02-16T13:34:40;4.25;;;1.52;;
43152;SDS011;28756;49.064;9.290;2024-02-16T13:37:05;4.53;;;1.60;;
43152;SDS011;28756;49.064;9.290;2024-02-16T13:39:31;4.85;;;1.77;;
43152;SDS011;28756;49.064;9.290;2024-02-16T13:41:57;2.45;;;1.42;;
43152;SDS011;28756;49.064;9.290;2024-02-16T13:44:23;4.65;;;1.65;;
43152;SDS011;28756;49.064;9.290;2024-02-16T13:46:50;3.10;;;1.42;;
43152;SDS011;28756;49.064;9.290;2024-02-16T13:49:15;3.63;;;1.70;;
43152;SDS011;28756;49.064;9.290;2024-02-16T13:51:41;3.35;;;1.77;;
43152;SDS011;28756;49.064;9.290;2024-02-16T13:54:07;3.08;;;1.67;;
43152;SDS011;28756;49.064;9.290;2024-02-16T13:56:33;2.70;;;1.30;;
43152;SDS011;28756;49.064;9.290;2024-02-16T13:59:01;4.43;;;1.52;;
43152;SDS011;28756;49.064;9.290;2024-02-16T14:01:28;2.28;;;1.40;;
43152;SDS011;28756;49.064;9.290;2024-02-16T14:03:54;2.92;;;1.63;;
43152;SDS011;28756;49.064;9.290;2024-02-16T14:06:20;2.38;;;1.60;;
43152;SDS011;28756;49.064;9.290;2024-02-16T14:08:46;4.95;;;1.67;;
43152;SDS011;28756;49.064;9.290;2024-02-16T14:11:17;1.92;;;1.45;;
43152;SDS011;28756;49.064;9.290;2024-02-16T14:13:44;5.35;;;1.80;;
43152;SDS011;28756;49.064;9.290;2024-02-16T14:16:10;5.13;;;1.80;;
43152;SDS011;28756;49.064;9.290;2024-02-16T14:18:36;5.05;;;1.70;;
43152;SDS011;28756;49.064;9.290;2024-02-16T14:21:02;4.90;;;2.00;;
43152;SDS011;28756;49.064;9.290;2024-02-16T14:23:29;3.03;;;1.52;;
43152;SDS011;28756;49.064;9.290;2024-02-16T14:25:55;3.58;;;1.88;;
43152;SDS011;28756;49.064;9.290;2024-02-16T14:28:21;6.60;;;1.80;;
43152;SDS011;28756;49.064;9.290;2024-02-16T14:30:48;4.90;;;1.92;;
43152;SDS011;28756;49.064;9.290;2024-02-16T14:33:13;6.05;;;1.80;;
43152;SDS011;28756;49.064;9.290;2024-02-16T14:35:41;3.45;;;1.60;;
43152;SDS011;28756;49.064;9.290;2024-02-16T14:38:08;2.97;;;1.33;;
43152;SDS011;28756;49.064;9.290;2024-02-16T14:40:34;3.70;;;1.58;;
43152;SDS011;28756;49.064;9.290;2024-02-16T14:43:01;3.97;;;2.00;;
43152;SDS011;28756;49.064;9.290;2024-02-16T14:45:27;4.03;;;1.50;;
43152;SDS011;28756;49.064;9.290;2024-02-16T14:47:52;3.33;;;1.60;;
43152;SDS011;28756;49.064;9.290;2024-02-16T14:50:18;4.40;;;1.73;;
43152;SDS011;28756;49.064;9.290;2024-02-16T14:52:44;3.40;;;1.83;;
43152;SDS011;28756;49.064;9.290;2024-02-16T14:55:10;17.40;;;2.13;;
43152;SDS011;28756;49.064;9.290;2024-02-16T14:57:42;2.17;;;1.20;;
43152;SDS011;28756;49.064;9.290;2024-02-16T15:00:11;5.13;;;1.63;;
43152;SDS011;28756;49.064;9.290;2024-02-16T15:02:38;3.47;;;1.48;;
43152;SDS011;28756;49.064;9.290;2024-02-16T15:05:07;3.10;;;1.23;;
43152;SDS011;28756;49.064;9.290;2024-02-16T15:07:33;2.80;;;1.40;;
43152;SDS011;28756;49.064;9.290;2024-02-16T15:10:00;3.45;;;1.30;;
43152;SDS011;28756;49.064;9.290;2024-02-16T15:12:26;3.90;;;1.35;;
43152;SDS011;28756;49.064;9.290;2024-02-16T15:14:52;2.35;;;1.05;;
43152;SDS011;28756;49.064;9.290;2024-02-16T15:17:18;2.28;;;1.30;;
43152;SDS011;28756;49.064;9.290;2024-02-16T15:19:44;2.53;;;1.33;;
43152;SDS011;28756;49.064;9.290;2024-02-16T15:22:10;5.90;;;1.60;;
43152;SDS011;28756;49.064;9.290;2024-02-16T15:24:36;3.88;;;1.40;;
43152;SDS011;28756;49.064;9.290;2024-02-16T15:27:02;3.97;;;1.30;;
43152;SDS011;28756;49.064;9.290;2024-02-16T15:29:29;3.97;;;1.55;;
43152;SDS011;28756;49.064;9.290;2024-02-16T15:31:55;2.70;;;1.25;;
43152;SDS011;28756;49.064;9.290;2024-02-16T15:34:24;2.88;;;1.33;;
43152;SDS011;28756;49.064;9.290;2024-02-16T15:36:50;3.38;;;1.45;;
43152;SDS011;28756;49.064;9.290;2024-02-16T15:39:16;1.58;;;1.00;;
43152;SDS011;28756;49.064;9.290;2024-02-16T15:41:42;5.85;;;1.88;;
43152;SDS011;28756;49.064;9.290;2024-02-16T15:44:08;7.50;;;2.03;;
43152;SDS011;28756;49.064;9.290;2024-02-16T15:46:35;1.70;;;1.00;;
43152;SDS011;28756;49.064;9.290;2024-02-16T15:49:03;1.33;;;0.88;;
43152;SDS011;28756;49.064;9.290;2024-02-16T15:51:29;3.60;;;1.20;;